Time;durP1;ratioP1;P1;durP2;ratioP2;P2;SDS_P1;SDS_P2;PMS_P1;PMS_P2;Temp;Humidity;BMP_temperature;BMP_pressure;BME280_temperature;BME280_humidity;BME280_pressure;Samples;Min_cycle;Max_cycle;Signal;HPM_P1;HPM_P2
2022/08/29 00:01:00;;;;;;;9.82;3.10;;;15.90;99.90;;;;;;5053036;28;20041;-71
2022/08/29 00:03:27;;;;;;;6.97;3.38;;;15.90;99.90;;;;;;5035107;28;20495;-72
2022/08/29 00:05:53;;;;;;;10.85;3.78;;;15.90;99.90;;;;;;5053679;28;20037;-70
2022/08/29 00:08:18;;;;;;;9.65;3.30;;;15.90;99.90;;;;;;5052055;28;20045;-71
2022/08/29 00:10:44;;;;;;;13.05;3.13;;;16.00;99.90;;;;;;5052548;28;20053;-70
2022/08/29 00:13:13;;;;;;;10.52;3.30;;;15.90;99.90;;;;;;5052652;28;20037;-70
2022/08/29 00:15:39;;;;;;;8.68;3.40;;;15.90;99.90;;;;;;5035517;28;20059;-71
2022/08/29 00:18:06;;;;;;;6.03;2.63;;;16.00;99.90;;;;;;5053616;28;20087;-70
2022/08/29 00:20:35;;;;;;;13.20;4.13;;;15.90;99.90;;;;;;5052382;28;20052;-72
2022/08/29 00:23:03;;;;;;;10.25;3.88;;;15.90;99.90;;;;;;5034499;28;20072;-71
2022/08/29 00:25:30;;;;;;;11.90;3.67;;;15.90;99.90;;;;;;5051616;28;20048;-71
2022/08/29 00:27:56;;;;;;;11.85;3.65;;;15.90;99.90;;;;;;5053508;28;20373;-70
2022/08/29 00:30:23;;;;;;;8.43;3.22;;;15.90;99.90;;;;;;5034473;28;20045;-71
2022/08/29 00:32:49;;;;;;;9.93;3.90;;;15.90;99.90;;;;;;5052260;28;20052;-70
2022/08/29 00:35:24;;;;;;;8.60;3.28;;;15.90;99.90;;;;;;5052112;28;20091;-72
2022/08/29 00:37:53;;;;;;;11.45;3.72;;;15.90;99.90;;;;;;5053054;28;20053;-70
2022/08/29 00:40:23;;;;;;;9.55;3.03;;;15.80;99.90;;;;;;5051816;28;20084;-70
2022/08/29 00:42:48;;;;;;;8.07;3.00;;;15.80;99.90;;;;;;5052038;28;20092;-71
2022/08/29 00:45:16;;;;;;;7.32;3.53;;;15.80;99.90;;;;;;5051955;28;20076;-72
2022/08/29 00:48:01;;;;;;;7.78;3.25;;;15.90;99.90;;;;;;5051718;28;20044;-73
2022/08/29 00:50:37;;;;;;;9.32;2.90;;;15.80;99.90;;;;;;5051781;28;20115;-71
2022/08/29 00:53:07;;;;;;;6.72;2.45;;;15.80;99.90;;;;;;5033679;28;20045;-71
2022/08/29 00:55:34;;;;;;;11.95;3.13;;;15.80;99.90;;;;;;5051342;28;20484;-71
2022/08/29 00:58:26;;;;;;;11.07;3.33;;;15.90;99.90;;;;;;5051914;28;20041;-70
2022/08/29 01:00:52;;;;;;;7.20;3.17;;;15.80;99.90;;;;;;5040657;28;20053;-70
2022/08/29 01:03:18;;;;;;;9.85;3.33;;;15.80;99.90;;;;;;5033873;28;20045;-76
2022/08/29 01:05:45;;;;;;;7.80;2.83;;;15.90;99.90;;;;;;5052557;28;20037;-70
2022/08/29 01:08:11;;;;;;;11.60;3.80;;;15.80;99.90;;;;;;5051354;28;20052;-70
2022/08/29 01:13:28;;;;;;;7.50;2.90;;;15.80;99.90;;;;;;5050882;28;20472;-71
2022/08/29 01:15:55;;;;;;;7.60;3.42;;;15.80;99.90;;;;;;5052421;28;20049;-71
2022/08/29 01:18:22;;;;;;;8.82;3.05;;;15.80;99.90;;;;;;5051208;28;20443;-70
2022/08/29 01:21:06;;;;;;;9.68;3.70;;;15.80;99.90;;;;;;5051019;28;20037;-71
2022/08/29 01:23:40;;;;;;;8.45;3.25;;;15.70;99.90;;;;;;5051988;28;20079;-70
2022/08/29 01:26:08;;;;;;;9.30;3.10;;;15.70;99.90;;;;;;5050791;28;20045;-70
2022/08/29 01:28:41;;;;;;;6.40;2.72;;;15.70;99.90;;;;;;5050592;28;20065;-70
2022/08/29 01:31:14;;;;;;;8.63;2.90;;;15.70;99.90;;;;;;5050701;28;20048;-69
2022/08/29 01:33:45;;;;;;;9.32;2.95;;;15.70;99.90;;;;;;5051810;28;20051;-71
2022/08/29 01:36:15;;;;;;;9.77;3.08;;;15.80;99.90;;;;;;5050336;28;20041;-74
2022/08/29 01:38:41;;;;;;;6.97;2.80;;;15.80;99.90;;;;;;5049754;28;20087;-71
2022/08/29 01:41:08;;;;;;;9.02;3.08;;;15.80;99.90;;;;;;5050446;28;20582;-72
2022/08/29 01:43:47;;;;;;;9.45;3.08;;;15.80;99.90;;;;;;5051195;28;20051;-71
2022/08/29 01:46:15;;;;;;;9.77;3.22;;;15.80;99.90;;;;;;5050535;28;20095;-71
2022/08/29 01:48:43;;;;;;;11.70;3.17;;;15.70;99.90;;;;;;5050235;28;20043;-72
2022/08/29 01:51:10;;;;;;;9.02;2.70;;;15.80;99.90;;;;;;5050135;28;20091;-71
2022/08/29 01:53:36;;;;;;;10.63;3.88;;;15.70;99.90;;;;;;5051232;28;20064;-70
2022/08/29 01:56:15;;;;;;;6.55;2.75;;;15.80;99.90;;;;;;5050488;28;20044;-70
2022/08/29 01:58:42;;;;;;;8.90;2.60;;;15.80;99.90;;;;;;5049898;28;20602;-70
2022/08/29 02:01:09;;;;;;;8.77;3.05;;;15.80;99.90;;;;;;5056475;28;20049;-68
2022/08/29 02:03:35;;;;;;;8.23;2.95;;;15.80;99.90;;;;;;5068874;28;20376;-70
2022/08/29 02:06:01;;;;;;;10.80;2.92;;;15.80;99.90;;;;;;5069939;28;20052;-71
2022/08/29 02:08:28;;;;;;;10.38;3.10;;;15.80;99.90;;;;;;5069999;28;20086;-70
2022/08/29 02:10:54;;;;;;;7.43;3.00;;;15.80;99.90;;;;;;5070169;28;20090;-71
2022/08/29 02:13:20;;;;;;;12.45;3.03;;;15.80;99.90;;;;;;5037482;28;20090;-71
2022/08/29 02:15:45;;;;;;;10.30;2.65;;;15.70;99.90;;;;;;5053245;28;20044;-71
2022/08/29 02:18:11;;;;;;;10.60;3.42;;;15.80;99.90;;;;;;5069801;28;20087;-70
2022/08/29 02:20:37;;;;;;;11.50;3.03;;;15.80;99.90;;;;;;5036197;28;20041;-69
2022/08/29 02:23:02;;;;;;;7.20;2.42;;;15.70;99.90;;;;;;5050053;28;20041;-71
2022/08/29 02:25:40;;;;;;;8.32;2.92;;;15.70;99.90;;;;;;5050135;28;20514;-70
2022/08/29 02:28:07;;;;;;;7.22;2.60;;;15.80;99.90;;;;;;5047426;28;20048;-69
2022/08/29 02:30:33;;;;;;;9.73;3.05;;;15.70;99.90;;;;;;5069615;28;20093;-70
2022/08/29 02:32:58;;;;;;;7.38;2.75;;;15.80;99.90;;;;;;5090435;28;20043;-71
2022/08/29 02:35:24;;;;;;;13.77;3.17;;;15.70;99.90;;;;;;5055403;28;20085;-71
2022/08/29 02:37:51;;;;;;;9.13;2.83;;;15.80;99.90;;;;;;5069880;28;20084;-73
2022/08/29 02:40:16;;;;;;;9.30;3.35;;;15.80;99.90;;;;;;5069725;28;20156;-72
2022/08/29 02:42:42;;;;;;;10.55;2.70;;;15.80;99.90;;;;;;5051929;28;20124;-71
2022/08/29 02:45:09;;;;;;;7.68;2.70;;;15.80;99.90;;;;;;5051341;28;20074;-70
2022/08/29 02:47:35;;;;;;;11.38;3.05;;;15.80;99.90;;;;;;5086076;28;20203;-71
2022/08/29 02:50:07;;;;;;;10.73;2.35;;;15.80;99.90;;;;;;5089379;28;20134;-70
2022/08/29 02:52:33;;;;;;;11.93;2.58;;;15.80;99.90;;;;;;5089690;28;20427;-70
2022/08/29 02:54:59;;;;;;;8.02;2.83;;;15.80;99.90;;;;;;5075270;28;20056;-71
2022/08/29 02:57:26;;;;;;;10.57;2.97;;;15.80;99.90;;;;;;5049484;28;20052;-72
2022/08/29 02:59:52;;;;;;;10.80;2.60;;;15.80;99.90;;;;;;5049338;28;20037;-72
2022/08/29 03:02:17;;;;;;;9.40;2.75;;;15.80;99.90;;;;;;5031203;28;20384;-74
2022/08/29 03:04:43;;;;;;;7.30;2.35;;;15.80;99.90;;;;;;5056758;28;20628;-71
2022/08/29 03:07:09;;;;;;;8.88;2.40;;;15.80;99.90;;;;;;5049595;28;20063;-72
2022/08/29 03:09:35;;;;;;;9.63;2.50;;;15.70;99.90;;;;;;5051435;28;20128;-72
2022/08/29 03:12:00;;;;;;;6.07;2.65;;;15.80;99.90;;;;;;5067615;28;20052;-71
2022/08/29 03:14:26;;;;;;;8.07;2.70;;;15.80;99.90;;;;;;5069522;28;20398;-72
2022/08/29 03:16:52;;;;;;;9.13;2.47;;;15.80;99.90;;;;;;5049360;28;20044;-71
2022/08/29 03:19:17;;;;;;;8.68;2.92;;;15.80;99.90;;;;;;5069126;28;20041;-71
2022/08/29 03:21:44;;;;;;;8.95;2.00;;;15.80;99.90;;;;;;5069199;28;20438;-71
2022/08/29 03:24:10;;;;;;;6.80;2.42;;;15.80;99.90;;;;;;5067565;28;20056;-71
2022/08/29 03:26:35;;;;;;;9.05;2.95;;;15.90;99.90;;;;;;5069054;28;20091;-70
2022/08/29 03:29:02;;;;;;;12.50;3.15;;;15.90;99.90;;;;;;5069057;28;20048;-71
2022/08/29 03:31:28;;;;;;;12.05;2.45;;;15.80;99.90;;;;;;5069355;28;20080;-71
2022/08/29 03:33:55;;;;;;;10.00;2.60;;;15.90;99.90;;;;;;5067020;28;20771;-72
2022/08/29 03:36:25;;;;;;;16.42;2.83;;;15.90;99.90;;;;;;5069103;28;20052;-71
2022/08/29 03:38:52;;;;;;;9.55;2.85;;;15.90;99.90;;;;;;5051022;28;20049;-71
2022/08/29 03:41:27;;;;;;;8.25;2.40;;;15.90;99.90;;;;;;5050604;28;20049;-71
2022/08/29 03:43:54;;;;;;;5.68;1.98;;;15.80;99.90;;;;;;5066915;28;20076;-71
2022/08/29 03:46:21;;;;;;;10.90;2.33;;;16.00;99.90;;;;;;5050696;28;20068;-71
2022/08/29 03:48:47;;;;;;;7.53;2.70;;;15.90;99.90;;;;;;5068426;28;20055;-72
2022/08/29 03:51:14;;;;;;;10.00;2.70;;;15.80;99.90;;;;;;5069197;28;20145;-71
2022/08/29 03:53:40;;;;;;;8.23;2.38;;;15.80;99.90;;;;;;5067196;28;20053;-72
2022/08/29 03:56:06;;;;;;;7.40;2.35;;;15.90;99.90;;;;;;5069008;28;20048;-71
2022/08/29 03:58:32;;;;;;;9.07;2.88;;;15.80;99.90;;;;;;5069049;28;20045;-71
2022/08/29 04:00:58;;;;;;;10.07;2.60;;;15.90;99.90;;;;;;5070312;28;20032;-71
2022/08/29 04:03:24;;;;;;;8.35;2.47;;;15.80;99.90;;;;;;5072033;28;20055;-71
2022/08/29 04:05:50;;;;;;;6.28;2.20;;;15.80;99.90;;;;;;5070136;28;20082;-71
2022/08/29 04:08:16;;;;;;;7.35;2.30;;;15.90;99.90;;;;;;5072471;28;20080;-72
2022/08/29 04:10:42;;;;;;;9.70;2.30;;;15.80;99.90;;;;;;5072496;28;20441;-72
2022/08/29 04:13:08;;;;;;;7.30;2.72;;;15.80;99.90;;;;;;5070491;28;20036;-73
2022/08/29 04:15:34;;;;;;;6.32;2.20;;;15.80;99.90;;;;;;5072543;28;20048;-70
2022/08/29 04:18:03;;;;;;;8.43;2.35;;;15.90;99.90;;;;;;5071818;28;20036;-71
2022/08/29 04:20:31;;;;;;;10.05;2.03;;;15.80;99.90;;;;;;5071838;28;20067;-71
2022/08/29 04:22:58;;;;;;;8.05;2.42;;;15.90;99.90;;;;;;5070524;28;20040;-72
2022/08/29 04:25:27;;;;;;;10.50;2.50;;;15.80;99.90;;;;;;5072117;28;20040;-70
2022/08/29 04:27:53;;;;;;;6.35;2.00;;;15.80;99.90;;;;;;5054028;28;20113;-71
2022/08/29 04:30:23;;;;;;;5.43;2.10;;;15.90;99.90;;;;;;5053822;28;20044;-71
2022/08/29 04:32:49;;;;;;;8.85;2.05;;;15.90;99.90;;;;;;5071994;28;20567;-71
2022/08/29 04:35:15;;;;;;;6.60;2.10;;;16.00;99.90;;;;;;5069632;28;20087;-71
2022/08/29 04:37:42;;;;;;;8.30;2.45;;;15.80;99.90;;;;;;5053910;28;20144;-71
2022/08/29 04:40:10;;;;;;;9.65;2.55;;;15.90;99.90;;;;;;5053963;28;20094;-71
2022/08/29 04:42:37;;;;;;;8.15;2.08;;;15.70;99.90;;;;;;5071573;28;20123;-71
2022/08/29 04:45:05;;;;;;;11.35;2.60;;;15.60;99.90;;;;;;5070018;28;20048;-72
2022/08/29 04:47:30;;;;;;;7.00;2.33;;;15.60;99.90;;;;;;5071983;28;20139;-71
2022/08/29 04:49:56;;;;;;;10.13;2.20;;;15.60;99.90;;;;;;5071780;28;20501;-70
2022/08/29 04:52:22;;;;;;;8.82;2.67;;;15.50;99.90;;;;;;5071172;28;20108;-71
2022/08/29 04:54:49;;;;;;;10.90;3.20;;;15.40;99.90;;;;;;5069947;28;20458;-70
2022/08/29 04:57:14;;;;;;;7.90;2.78;;;15.40;99.90;;;;;;5053479;28;20049;-70
2022/08/29 04:59:40;;;;;;;12.35;2.70;;;15.40;99.90;;;;;;5071147;28;20111;-70
2022/08/29 05:02:06;;;;;;;7.30;2.30;;;15.40;99.90;;;;;;5059345;28;20045;-71
2022/08/29 05:04:31;;;;;;;13.57;2.63;;;15.50;99.90;;;;;;5051259;28;20037;-71
2022/08/29 05:06:57;;;;;;;7.47;2.72;;;15.40;99.90;;;;;;5065049;28;20120;-70
2022/08/29 05:09:23;;;;;;;7.50;2.33;;;15.40;99.90;;;;;;5053100;28;20056;-70
2022/08/29 05:11:48;;;;;;;11.10;2.67;;;15.50;99.90;;;;;;5067589;28;20195;-70
2022/08/29 05:14:14;;;;;;;9.30;2.95;;;15.40;99.90;;;;;;5033323;28;20095;-71
2022/08/29 05:16:40;;;;;;;11.13;2.67;;;15.40;99.90;;;;;;5052256;28;20049;-70
2022/08/29 05:19:07;;;;;;;6.50;2.30;;;15.40;99.90;;;;;;5051119;28;20124;-69
2022/08/29 05:21:36;;;;;;;6.47;3.10;;;15.40;99.90;;;;;;5032942;28;20072;-71
2022/08/29 05:24:04;;;;;;;9.20;2.58;;;15.40;99.90;;;;;;5050734;28;20140;-70
2022/08/29 05:26:35;;;;;;;9.68;2.53;;;15.40;99.90;;;;;;5052318;28;20048;-70
2022/08/29 05:29:01;;;;;;;8.68;3.05;;;15.40;99.90;;;;;;5067927;28;20777;-70
2022/08/29 05:31:27;;;;;;;8.75;3.10;;;15.40;99.90;;;;;;5032930;28;20045;-75
2022/08/29 05:33:52;;;;;;;8.63;2.38;;;15.40;99.90;;;;;;5065901;28;20412;-70
2022/08/29 05:36:19;;;;;;;8.82;2.17;;;15.40;99.90;;;;;;5070296;28;20127;-70
2022/08/29 05:38:45;;;;;;;8.95;2.53;;;15.50;99.90;;;;;;5068764;28;20202;-72
2022/08/29 05:41:10;;;;;;;7.85;2.00;;;15.40;99.90;;;;;;5070686;28;20048;-71
2022/08/29 05:43:36;;;;;;;10.43;2.50;;;15.50;99.90;;;;;;5052107;28;20094;-72
2022/08/29 05:46:08;;;;;;;9.07;2.28;;;15.50;99.90;;;;;;5052715;28;20040;-71
2022/08/29 05:48:34;;;;;;;9.13;2.65;;;15.50;99.90;;;;;;5068209;28;20072;-71
2022/08/29 05:51:01;;;;;;;8.88;2.72;;;15.60;99.90;;;;;;5070787;28;20048;-71
2022/08/29 05:53:27;;;;;;;6.05;2.50;;;15.60;99.90;;;;;;5069686;28;20139;-72
2022/08/29 05:55:53;;;;;;;10.20;3.40;;;15.60;99.90;;;;;;5052463;28;20064;-71
2022/08/29 05:58:19;;;;;;;11.00;3.03;;;15.70;99.90;;;;;;5050461;28;20055;-71
2022/08/29 06:00:46;;;;;;;14.35;3.22;;;15.80;99.90;;;;;;5070283;28;20048;-70
2022/08/29 06:03:13;;;;;;;12.82;3.15;;;15.80;99.90;;;;;;5067785;28;20388;-71
2022/08/29 06:05:40;;;;;;;11.38;2.65;;;15.90;99.90;;;;;;5050242;28;20124;-71
2022/08/29 06:08:06;;;;;;;9.48;3.08;;;15.90;99.90;;;;;;5050443;28;20443;-71
2022/08/29 06:10:33;;;;;;;11.75;2.67;;;16.00;99.90;;;;;;5049895;28;20783;-71
2022/08/29 06:12:59;;;;;;;16.00;3.22;;;16.00;99.90;;;;;;5044637;28;20514;-71
2022/08/29 06:15:27;;;;;;;8.25;2.38;;;16.20;99.90;;;;;;5080834;28;20055;-71
2022/08/29 06:17:53;;;;;;;9.05;2.90;;;16.20;99.90;;;;;;5090157;28;20097;-71
2022/08/29 06:20:19;;;;;;;9.70;2.78;;;16.20;99.90;;;;;;5058980;28;20040;-71
2022/08/29 06:22:45;;;;;;;6.97;2.38;;;16.40;99.90;;;;;;5055524;28;20052;-70
2022/08/29 06:25:12;;;;;;;13.85;2.90;;;16.40;99.90;;;;;;5071427;28;20048;-72
2022/08/29 06:27:37;;;;;;;8.52;2.28;;;16.50;99.90;;;;;;5072135;28;20094;-71
2022/08/29 06:30:05;;;;;;;8.60;1.70;;;16.60;99.90;;;;;;5067707;28;20380;-71
2022/08/29 06:32:30;;;;;;;7.72;1.48;;;16.60;99.90;;;;;;5069429;28;20047;-71
2022/08/29 06:34:56;;;;;;;8.10;2.10;;;16.80;99.90;;;;;;5068864;28;20040;-72
2022/08/29 06:37:22;;;;;;;9.60;2.10;;;16.90;99.90;;;;;;5070079;28;20040;-71
2022/08/29 06:39:47;;;;;;;7.07;1.85;;;17.00;99.90;;;;;;5050652;28;20051;-71
2022/08/29 06:42:13;;;;;;;6.55;1.70;;;17.10;99.90;;;;;;5031641;28;20049;-70
2022/08/29 06:44:38;;;;;;;8.23;2.55;;;17.10;99.90;;;;;;5052488;28;20597;-69
2022/08/29 06:47:04;;;;;;;7.82;2.17;;;17.30;99.90;;;;;;5067523;28;20045;-72
2022/08/29 06:49:32;;;;;;;5.35;1.55;;;17.30;99.90;;;;;;5056315;28;20044;-73
2022/08/29 06:51:58;;;;;;;6.22;1.85;;;17.40;99.90;;;;;;5071221;28;20328;-69
2022/08/29 06:54:26;;;;;;;8.20;1.70;;;17.50;99.90;;;;;;5049205;28;20504;-69
2022/08/29 06:56:52;;;;;;;9.18;2.08;;;17.50;99.90;;;;;;5048743;28;20134;-69
2022/08/29 06:59:19;;;;;;;8.70;1.67;;;17.50;99.90;;;;;;5050402;28;20052;-69
2022/08/29 07:01:46;;;;;;;7.88;1.98;;;17.60;99.90;;;;;;5053206;28;20075;-69
2022/08/29 07:04:12;;;;;;;10.85;2.38;;;17.60;99.90;;;;;;5067699;28;20200;-68
2022/08/29 07:06:38;;;;;;;13.32;3.25;;;17.60;99.90;;;;;;5068073;28;20032;-70
2022/08/29 07:09:05;;;;;;;8.68;1.98;;;17.70;99.90;;;;;;5059399;28;20049;-70
2022/08/29 07:11:31;;;;;;;9.85;2.05;;;17.70;99.90;;;;;;5049646;28;20510;-70
2022/08/29 07:13:59;;;;;;;11.85;3.05;;;17.80;99.90;;;;;;5049126;28;20534;-72
2022/08/29 07:16:26;;;;;;;12.70;2.50;;;17.80;99.90;;;;;;5049453;28;20053;-70
2022/08/29 07:18:51;;;;;;;13.00;2.38;;;17.90;99.90;;;;;;5050254;28;20123;-73
2022/08/29 07:21:20;;;;;;;11.38;2.60;;;18.00;99.90;;;;;;5049495;28;20140;-71
2022/08/29 07:23:45;;;;;;;12.68;2.40;;;18.10;99.90;;;;;;5055314;28;20491;-71
2022/08/29 07:26:25;;;;;;;11.45;2.30;;;18.10;99.90;;;;;;5070287;28;20032;-71
2022/08/29 07:28:53;;;;;;;12.52;2.22;;;18.20;99.90;;;;;;5088953;28;20040;-72
2022/08/29 07:31:19;;;;;;;14.50;2.97;;;18.30;99.90;;;;;;5069987;28;20044;-72
2022/08/29 07:33:45;;;;;;;12.00;2.22;;;18.50;99.90;;;;;;5033943;28;20044;-78
2022/08/29 07:36:17;;;;;;;11.05;2.42;;;18.60;99.90;;;;;;5051389;28;20526;-76
2022/08/29 07:38:43;;;;;;;8.68;2.20;;;18.80;99.90;;;;;;5052681;28;20037;-76
2022/08/29 07:41:15;;;;;;;7.45;2.58;;;18.90;99.90;;;;;;5056710;28;20040;-71
2022/08/29 07:43:42;;;;;;;12.75;3.00;;;19.00;99.90;;;;;;5069324;28;20741;-72
2022/08/29 07:46:13;;;;;;;10.85;2.20;;;19.20;99.90;;;;;;5062396;28;20036;-74
2022/08/29 07:48:40;;;;;;;17.30;2.78;;;19.40;99.90;;;;;;5052512;28;20045;-81
2022/08/29 07:51:08;;;;;;;20.27;2.55;;;19.50;99.90;;;;;;5034331;28;20095;-77
2022/08/29 07:53:34;;;;;;;10.45;2.42;;;19.50;99.90;;;;;;5052798;28;20115;-75
2022/08/29 07:56:08;;;;;;;12.88;2.20;;;19.80;99.90;;;;;;5053734;28;20075;-75
2022/08/29 07:58:35;;;;;;;15.20;2.60;;;20.10;99.90;;;;;;5052392;28;20051;-74
2022/08/29 08:01:02;;;;;;;11.30;2.40;;;20.20;99.90;;;;;;5034284;28;20127;-73
2022/08/29 08:03:29;;;;;;;16.08;3.58;;;20.30;99.90;;;;;;5058240;28;20521;-71
2022/08/29 08:05:54;;;;;;;13.82;2.88;;;20.30;99.90;;;;;;5073342;28;20040;-73
2022/08/29 08:08:20;;;;;;;9.13;3.03;;;20.30;99.90;;;;;;5052434;28;20055;-71
2022/08/29 08:10:46;;;;;;;12.73;3.08;;;20.30;99.90;;;;;;5052195;28;20403;-73
2022/08/29 08:13:12;;;;;;;17.85;3.17;;;20.20;99.90;;;;;;5035648;28;20075;-73
2022/08/29 08:15:39;;;;;;;11.23;2.30;;;20.20;99.90;;;;;;5051808;28;20084;-72
2022/08/29 08:18:04;;;;;;;18.80;2.50;;;20.20;99.90;;;;;;5052252;28;20459;-73
2022/08/29 08:20:30;;;;;;;14.80;2.58;;;20.20;99.90;;;;;;5047292;28;20089;-73
2022/08/29 08:22:57;;;;;;;13.55;2.72;;;20.20;99.90;;;;;;5086970;28;20040;-73
2022/08/29 08:25:23;;;;;;;9.63;2.30;;;20.20;99.90;;;;;;5052111;28;20067;-72
2022/08/29 08:27:49;;;;;;;18.08;2.67;;;20.50;99.90;;;;;;5051967;28;20048;-73
2022/08/29 08:30:15;;;;;;;9.13;2.28;;;20.80;99.90;;;;;;5051490;28;20045;-73
2022/08/29 08:32:41;;;;;;;11.40;2.22;;;21.00;99.90;;;;;;5034740;28;20095;-71
2022/08/29 08:35:07;;;;;;;15.73;2.65;;;21.10;99.90;;;;;;5051945;28;20053;-72
2022/08/29 08:37:32;;;;;;;20.98;2.60;;;21.40;99.90;;;;;;5051712;28;20048;-73
2022/08/29 08:39:59;;;;;;;11.27;2.15;;;21.50;99.90;;;;;;5062210;28;20044;-70
2022/08/29 08:42:41;;;;;;;14.05;2.38;;;21.60;99.90;;;;;;5064833;28;20063;-73
2022/08/29 08:45:11;;;;;;;13.90;2.80;;;21.60;99.90;;;;;;5051571;28;20605;-72
2022/08/29 08:47:46;;;;;;;13.93;2.38;;;21.60;99.90;;;;;;5050885;28;20400;-73
2022/08/29 08:50:11;;;;;;;;;;;21.70;99.90;;;;;;5052310;28;20103;-73
2022/08/29 08:52:46;;;;;;;17.25;3.50;;;21.70;99.90;;;;;;5033742;28;20342;-73
2022/08/29 08:55:30;;;;;;;9.63;3.00;;;21.70;99.90;;;;;;5051811;28;20060;-71
2022/08/29 08:58:29;;;;;;;12.30;2.50;;;21.60;99.90;;;;;;5061634;28;20387;-74
2022/08/29 09:00:59;;;;;;;10.98;2.38;;;21.60;99.90;;;;;;5050852;28;20138;-73
2022/08/29 09:04:05;;;;;;;12.02;3.35;;;21.50;99.90;;;;;;5050975;28;20053;-72
2022/08/29 09:07:02;;;;;;;13.55;2.97;;;21.60;99.90;;;;;;5062505;28;20044;-73
2022/08/29 09:10:09;;;;;;;11.23;2.80;;;21.60;99.90;;;;;;5076221;28;20518;-72
2022/08/29 09:12:44;;;;;;;9.75;2.67;;;21.50;99.90;;;;;;4987811;28;20093;-74
2022/08/29 09:15:16;;;;;;;15.88;2.92;;;21.60;99.90;;;;;;4989341;28;20058;-74
2022/08/29 09:18:09;;;;;;;13.13;2.58;;;21.60;99.90;;;;;;4969352;28;20133;-73
2022/08/29 09:20:38;;;;;;;12.73;2.55;;;21.60;99.90;;;;;;4953745;28;20058;-71
2022/08/29 09:23:17;;;;;;;12.82;2.65;;;21.60;99.90;;;;;;4953967;28;20141;-72
2022/08/29 09:25:43;;;;;;;16.05;2.70;;;21.40;99.90;;;;;;4969633;28;20052;-73
2022/08/29 09:28:09;;;;;;;10.77;3.15;;;21.50;99.90;;;;;;4969463;28;20528;-73
2022/08/29 09:30:38;;;;;;;11.48;2.92;;;21.50;99.90;;;;;;4953530;28;20067;-74
2022/08/29 09:33:12;;;;;;;12.30;3.15;;;21.50;99.90;;;;;;4969308;28;20058;-72
2022/08/29 09:35:42;;;;;;;15.10;3.15;;;21.70;99.90;;;;;;4969357;28;20764;-73
2022/08/29 09:38:16;;;;;;;12.35;3.03;;;21.70;99.90;;;;;;4953145;28;20055;-72
2022/08/29 09:40:47;;;;;;;11.95;2.45;;;22.00;99.90;;;;;;4953489;28;20062;-73
2022/08/29 09:43:28;;;;;;;13.57;2.95;;;22.10;99.90;;;;;;4969434;28;20845;-72
2022/08/29 09:46:21;;;;;;;11.45;3.10;;;22.30;99.90;;;;;;4969080;28;20050;-73
2022/08/29 09:49:15;;;;;;;9.70;2.47;;;22.30;99.90;;;;;;4993239;28;20049;-71
2022/08/29 09:51:46;;;;;;;12.38;3.22;;;22.30;99.90;;;;;;5076030;28;20392;-69
2022/08/29 09:54:27;;;;;;;13.95;3.53;;;22.30;99.90;;;;;;5050245;28;20131;-70
2022/08/29 09:56:55;;;;;;;13.38;2.33;;;22.20;99.90;;;;;;5050019;28;20045;-68
2022/08/29 09:59:32;;;;;;;15.65;2.72;;;22.20;99.90;;;;;;5052575;28;20095;-70
2022/08/29 10:02:35;;;;;;;13.65;2.90;;;22.20;99.90;;;;;;5074501;28;20040;-70
2022/08/29 10:05:08;;;;;;;8.43;2.72;;;22.10;99.90;;;;;;4969412;28;20054;-70
2022/08/29 10:07:51;;;;;;;18.10;3.20;;;22.20;99.90;;;;;;4969078;28;20181;-72
2022/08/29 10:10:23;;;;;;;10.02;2.55;;;22.20;99.90;;;;;;4952819;28;20086;-71
2022/08/29 10:12:52;;;;;;;11.02;2.88;;;22.20;99.90;;;;;;4981159;28;20050;-70
2022/08/29 10:15:25;;;;;;;10.25;3.10;;;22.20;99.90;;;;;;4968629;28;20752;-72
2022/08/29 10:18:22;;;;;;;12.75;3.13;;;22.20;99.90;;;;;;4968863;28;20058;-70
2022/08/29 10:21:14;;;;;;;15.48;3.53;;;22.20;99.90;;;;;;4988412;28;20045;-71
2022/08/29 10:23:46;;;;;;;14.73;3.10;;;22.30;99.90;;;;;;5008231;28;20129;-71
2022/08/29 10:26:40;;;;;;;13.43;3.25;;;22.30;99.90;;;;;;4996448;28;20046;-72
2022/08/29 10:29:37;;;;;;;11.63;2.97;;;22.30;99.90;;;;;;4968520;28;20058;-72
2022/08/29 10:32:15;;;;;;;9.52;2.53;;;22.40;99.90;;;;;;4936845;29;20055;-71
2022/08/29 10:34:51;;;;;;;9.93;3.38;;;22.50;99.90;;;;;;4946567;28;20130;-72
2022/08/29 10:37:57;;;;;;;10.75;2.58;;;22.40;99.90;;;;;;4948803;28;20063;-72
2022/08/29 10:40:29;;;;;;;12.23;2.63;;;22.30;99.90;;;;;;4954067;28;20055;-69
2022/08/29 10:43:25;;;;;;;12.25;2.50;;;22.30;99.90;;;;;;4991222;28;20596;-72
2022/08/29 10:46:25;;;;;;;9.77;2.80;;;22.30;99.90;;;;;;5007277;28;20128;-72
2022/08/29 10:48:54;;;;;;;8.95;2.63;;;22.20;99.90;;;;;;5006659;28;20057;-73
2022/08/29 10:52:02;;;;;;;9.38;2.63;;;22.30;99.90;;;;;;5006210;28;20053;-70
2022/08/29 10:54:52;;;;;;;13.98;3.20;;;22.30;99.90;;;;;;4921676;29;20060;-71
2022/08/29 10:57:40;;;;;;;12.13;2.90;;;22.20;99.90;;;;;;4929504;29;20456;-72
2022/08/29 11:00:19;;;;;;;12.52;3.75;;;22.20;99.90;;;;;;4899200;29;20051;-71
2022/08/29 11:02:55;;;;;;;15.55;3.63;;;22.10;99.90;;;;;;4939994;29;20138;-70
2022/08/29 11:05:26;;;;;;;16.30;3.63;;;22.10;99.90;;;;;;4908648;29;20052;-72
2022/08/29 11:08:06;;;;;;;15.07;3.88;;;22.00;99.90;;;;;;4934873;28;20051;-78
2022/08/29 11:10:39;;;;;;;12.02;3.28;;;21.90;99.90;;;;;;4974458;28;20059;-72
2022/08/29 11:13:16;;;;;;;11.70;2.60;;;21.80;99.90;;;;;;4974584;28;20054;-70
2022/08/29 11:16:08;;;;;;;12.63;2.65;;;21.80;99.90;;;;;;4956346;28;20055;-71
2022/08/29 11:19:19;;;;;;;13.70;3.30;;;21.70;99.90;;;;;;4980334;28;20050;-75
2022/08/29 11:21:56;;;;;;;12.57;3.45;;;21.70;99.90;;;;;;4952572;29;20067;-68
2022/08/29 11:24:26;;;;;;;12.45;3.42;;;21.70;99.90;;;;;;4935528;29;20074;-71
2022/08/29 11:27:06;;;;;;;12.27;2.85;;;21.70;99.90;;;;;;4952283;29;20051;-72
2022/08/29 11:29:59;;;;;;;14.32;3.15;;;21.70;99.90;;;;;;4953484;28;20047;-77
2022/08/29 11:32:34;;;;;;;10.60;2.88;;;21.50;99.90;;;;;;4991014;28;20062;-74
2022/08/29 11:35:09;;;;;;;10.93;2.70;;;21.50;99.90;;;;;;4991480;28;20038;-73
2022/08/29 11:38:05;;;;;;;17.83;3.30;;;21.40;99.90;;;;;;4991239;28;20054;-76
2022/08/29 11:41:11;;;;;;;11.90;3.70;;;21.50;99.90;;;;;;4974437;28;20496;-73
2022/08/29 11:43:44;;;;;;;11.90;2.65;;;21.40;99.90;;;;;;4990582;28;20609;-76
2022/08/29 11:46:12;;;;;;;14.82;4.05;;;21.50;99.90;;;;;;4990755;28;20058;-72
2022/08/29 11:48:46;;;;;;;17.45;3.33;;;21.50;99.90;;;;;;4977003;28;20054;-71
2022/08/29 11:51:37;;;;;;;10.48;2.85;;;21.40;99.90;;;;;;5021374;28;20545;-71
2022/08/29 11:54:27;;;;;;;28.38;4.13;;;21.50;99.90;;;;;;5029089;28;20092;-73
2022/08/29 11:56:59;;;;;;;11.10;2.80;;;21.60;99.90;;;;;;5036667;28;20434;-71
2022/08/29 11:59:53;;;;;;;11.70;2.92;;;21.60;99.90;;;;;;5066116;28;20048;-71
2022/08/29 12:02:30;;;;;;;13.82;2.70;;;21.60;99.90;;;;;;5051993;28;20052;-75
2022/08/29 12:05:15;;;;;;;13.85;2.63;;;21.70;99.90;;;;;;5068852;28;20044;-72
2022/08/29 12:07:52;;;;;;;10.48;2.35;;;21.60;99.90;;;;;;5034088;28;20102;-75
2022/08/29 12:10:23;;;;;;;12.63;2.75;;;21.60;99.90;;;;;;5041965;28;20118;-72
2022/08/29 12:12:55;;;;;;;7.35;2.10;;;21.60;99.90;;;;;;5053675;28;20040;-73
2022/08/29 12:15:33;;;;;;;14.00;2.75;;;21.70;99.90;;;;;;5079076;28;20091;-70
2022/08/29 12:18:21;;;;;;;13.10;2.67;;;21.80;99.90;;;;;;5093015;28;20085;-72
2022/08/29 12:20:54;;;;;;;11.30;2.38;;;21.80;99.90;;;;;;5054228;28;20067;-72
2022/08/29 12:23:44;;;;;;;14.55;2.55;;;21.80;99.90;;;;;;5069032;28;20643;-72
2022/08/29 12:26:35;;;;;;;11.43;2.42;;;21.80;99.90;;;;;;5074194;28;20048;-73
2022/08/29 12:29:01;;;;;;;9.55;2.30;;;21.80;99.90;;;;;;5074485;28;20793;-73
2022/08/29 12:31:54;;;;;;;15.32;3.45;;;21.90;99.90;;;;;;5071807;28;20033;-73
2022/08/29 12:34:39;;;;;;;11.98;2.35;;;21.90;99.90;;;;;;5072232;28;20051;-71
2022/08/29 12:37:30;;;;;;;9.43;2.58;;;22.00;99.90;;;;;;5071926;28;20129;-70
2022/08/29 12:39:59;;;;;;;11.27;2.83;;;22.10;99.90;;;;;;5070638;28;20055;-72
2022/08/29 12:42:49;;;;;;;11.00;2.92;;;22.20;99.90;;;;;;5071253;28;20044;-73
2022/08/29 12:45:26;;;;;;;9.18;2.17;;;22.30;99.90;;;;;;5053332;28;20507;-72
2022/08/29 12:47:56;;;;;;;14.35;3.03;;;22.40;99.90;;;;;;5080404;28;20047;-74
2022/08/29 12:50:42;;;;;;;8.73;2.50;;;22.40;99.90;;;;;;5056371;28;20099;-70
2022/08/29 12:53:29;;;;;;;11.90;2.53;;;22.40;99.90;;;;;;5077887;28;20085;-72
2022/08/29 12:55:58;;;;;;;8.15;2.15;;;22.60;99.90;;;;;;5089380;28;20066;-77
2022/08/29 12:58:30;;;;;;;10.00;2.17;;;22.70;99.90;;;;;;5077929;28;20073;-70
2022/08/29 13:00:56;;;;;;;7.65;2.15;;;22.80;99.90;;;;;;5089765;28;20048;-74
2022/08/29 13:03:23;;;;;;;7.25;2.25;;;23.00;99.90;;;;;;5084877;28;20040;-77
2022/08/29 13:05:48;;;;;;;9.68;2.13;;;22.90;99.90;;;;;;5085752;28;20047;-72